createdAt,value
2019-03-16T00:00:14.684Z,87.10
2019-03-16T00:02:43.203Z,87.20
2019-03-16T00:05:11.803Z,87.00
2019-03-16T00:07:40.291Z,85.70
2019-03-16T00:10:08.817Z,85.60
2019-03-16T00:12:37.343Z,86.50
2019-03-16T00:15:07.689Z,85.60
2019-03-16T00:17:36.139Z,85.40
2019-03-16T00:20:07.672Z,85.30
2019-03-16T00:22:36.197Z,85.80
2019-03-16T00:25:06.344Z,86.30
2019-03-16T00:27:34.830Z,87.30
2019-03-16T00:30:04.780Z,86.60
2019-03-16T00:32:33.299Z,86.40
2019-03-16T00:35:01.761Z,85.50
2019-03-16T00:37:30.316Z,86.70
2019-03-16T00:39:58.775Z,86.70
2019-03-16T00:42:27.233Z,86.60
2019-03-16T00:44:55.728Z,85.90
2019-03-16T00:47:24.327Z,86.70
2019-03-16T00:49:52.783Z,85.70
2019-03-16T00:52:21.263Z,85.30
2019-03-16T00:54:49.732Z,85.40
2019-03-16T00:57:18.190Z,85.10
2019-03-16T00:59:46.753Z,85.90
2019-03-16T01:02:26.538Z,85.10
2019-03-16T01:04:45.455Z,84.10
2019-03-16T01:07:14.019Z,83.80
2019-03-16T01:09:43.748Z,82.60
2019-03-16T01:12:12.404Z,82.50
2019-03-16T01:14:40.891Z,82.20
2019-03-16T01:17:09.615Z,82.10
2019-03-16T01:19:38.067Z,81.60
2019-03-16T01:22:06.573Z,81.40
2019-03-16T01:24:35.091Z,81.60
2019-03-16T01:27:03.547Z,80.80
2019-03-16T01:29:32.044Z,81.20
2019-03-16T01:32:00.663Z,82.00
2019-03-16T01:34:29.183Z,83.00
2019-03-16T01:36:57.676Z,82.70
2019-03-16T01:39:26.128Z,82.60
2019-03-16T01:41:54.581Z,83.20
2019-03-16T01:44:23.068Z,82.20
2019-03-16T01:46:51.677Z,82.30
2019-03-16T01:49:20.195Z,82.60
2019-03-16T01:51:48.683Z,82.60
2019-03-16T01:54:17.211Z,81.90
2019-03-16T01:56:45.671Z,81.90
2019-03-16T01:59:14.223Z,81.80
2019-03-16T02:01:42.680Z,82.70
2019-03-16T02:04:11.211Z,80.80
2019-03-16T02:06:39.696Z,82.40
2019-03-16T02:09:08.291Z,81.30
2019-03-16T02:11:36.753Z,80.80
2019-03-16T02:14:05.451Z,81.30
2019-03-16T02:16:33.919Z,79.20
2019-03-16T02:19:02.659Z,78.90
2019-03-16T02:21:31.165Z,79.50
2019-03-16T02:23:59.707Z,77.80
2019-03-16T02:26:28.155Z,76.40
2019-03-16T02:28:56.679Z,76.70
2019-03-16T02:31:25.133Z,75.20
2019-03-16T02:33:53.593Z,75.60
2019-03-16T02:36:22.242Z,76.40
2019-03-16T02:38:50.772Z,75.80
2019-03-16T02:41:19.287Z,75.90
2019-03-16T02:43:47.786Z,75.10
2019-03-16T02:46:16.317Z,76.70
2019-03-16T02:48:44.836Z,77.30
2019-03-16T02:51:13.406Z,76.50
2019-03-16T02:53:42.048Z,75.10
2019-03-16T02:56:10.562Z,74.70
2019-03-16T02:58:39.052Z,73.90
2019-03-16T03:01:07.509Z,73.90
2019-03-16T03:03:35.956Z,74.20
2019-03-16T03:06:04.522Z,74.30
2019-03-16T03:08:32.976Z,73.30
2019-03-16T03:11:01.495Z,76.00
2019-03-16T03:13:29.981Z,74.20
2019-03-16T03:15:58.508Z,73.90
2019-03-16T03:18:26.968Z,73.30
2019-03-16T03:20:55.663Z,72.50
2019-03-16T03:23:24.115Z,73.90
2019-03-16T03:25:52.641Z,73.30
2019-03-16T03:28:21.312Z,72.70
2019-03-16T03:30:49.838Z,72.30
2019-03-16T03:33:18.409Z,72.10
2019-03-16T03:35:46.969Z,72.80
2019-03-16T03:38:15.501Z,72.50
2019-03-16T03:40:44.031Z,72.10
2019-03-16T03:43:12.600Z,71.90
2019-03-16T03:45:41.115Z,72.40
2019-03-16T03:48:09.577Z,71.50
2019-03-16T03:50:38.174Z,72.40
2019-03-16T03:53:06.702Z,71.10
2019-03-16T03:55:35.296Z,70.80
2019-03-16T03:58:03.943Z,70.80
2019-03-16T04:00:32.399Z,70.50
2019-03-16T04:03:01.005Z,70.60
2019-03-16T04:05:29.552Z,71.00
2019-03-16T04:07:58.011Z,72.20
2019-03-16T04:10:26.485Z,71.50
2019-03-16T04:12:54.975Z,71.40
2019-03-16T04:15:23.516Z,71.20
2019-03-16T04:17:52.149Z,71.60
2019-03-16T04:20:20.741Z,71.90
2019-03-16T04:22:49.376Z,73.10
2019-03-16T04:25:17.833Z,72.00
2019-03-16T04:27:46.309Z,72.50
2019-03-16T04:30:15.002Z,71.80
2019-03-16T04:32:43.460Z,72.10
2019-03-16T04:35:12.016Z,72.60
2019-03-16T04:37:40.539Z,70.90
2019-03-16T04:40:10.740Z,71.30
2019-03-16T04:42:39.307Z,71.50
2019-03-16T04:45:09.495Z,72.00
2019-03-16T04:47:37.959Z,72.30
2019-03-16T04:50:09.193Z,71.30
2019-03-16T04:52:37.720Z,70.80
2019-03-16T04:55:07.952Z,71.20
2019-03-16T04:57:36.533Z,72.20
2019-03-16T05:00:10.464Z,72.70
2019-03-16T05:02:38.991Z,71.60
2019-03-16T05:05:07.612Z,72.80
2019-03-16T05:07:36.144Z,72.60
2019-03-16T05:10:09.559Z,72.80
2019-03-16T05:12:38.192Z,72.80
2019-03-16T05:15:10.048Z,72.10
2019-03-16T05:17:38.704Z,72.40
2019-03-16T05:20:10.042Z,71.30
2019-03-16T05:22:38.638Z,71.60
2019-03-16T05:25:12.161Z,71.80
2019-03-16T05:27:40.751Z,71.70
2019-03-16T05:30:12.469Z,72.50
2019-03-16T05:32:41.051Z,72.10
2019-03-16T05:35:09.612Z,71.10
2019-03-16T05:37:38.147Z,70.60
2019-03-16T05:40:12.609Z,71.20
2019-03-16T05:42:41.164Z,71.50
2019-03-16T05:45:10.305Z,70.60
2019-03-16T05:47:38.833Z,71.20
2019-03-16T05:50:10.131Z,71.10
2019-03-16T05:52:38.660Z,71.90
2019-03-16T05:55:07.235Z,70.70
2019-03-16T05:57:35.778Z,71.60
2019-03-16T06:00:10.272Z,71.70
2019-03-16T06:02:40.450Z,71.80
2019-03-16T06:05:11.124Z,71.60
2019-03-16T06:07:39.290Z,71.60
2019-03-16T06:10:09.788Z,72.80
2019-03-16T06:12:38.432Z,73.00
2019-03-16T06:15:09.524Z,71.80
2019-03-16T06:17:38.007Z,72.30
2019-03-16T06:22:43.485Z,73.30
2019-03-16T06:25:14.782Z,73.30
2019-03-16T06:27:43.524Z,73.20
2019-03-16T06:30:14.792Z,73.80
2019-03-16T06:32:43.489Z,74.00
2019-03-16T06:35:24.069Z,73.80
2019-03-16T06:37:42.428Z,73.90
2019-03-16T06:40:14.032Z,74.50
2019-03-16T06:42:44.431Z,73.90
2019-03-16T06:45:13.141Z,75.00
2019-03-16T06:47:41.687Z,75.60
2019-03-16T06:50:14.654Z,74.40
2019-03-16T06:52:43.137Z,72.80
2019-03-16T06:55:11.662Z,74.30
2019-03-16T06:57:40.112Z,73.80
2019-03-16T07:00:13.760Z,73.90
2019-03-16T07:02:42.363Z,74.00
2019-03-16T07:05:12.837Z,72.90
2019-03-16T07:07:41.437Z,73.40
2019-03-16T07:10:13.831Z,74.00
2019-03-16T07:12:42.461Z,72.50
2019-03-16T07:15:12.415Z,73.70
2019-03-16T07:17:40.876Z,72.10
2019-03-16T07:20:11.792Z,73.50
2019-03-16T07:22:40.279Z,72.90
2019-03-16T07:25:09.492Z,72.60
2019-03-16T07:27:37.951Z,72.70
2019-03-16T07:30:11.890Z,72.70
2019-03-16T07:32:40.346Z,73.50
2019-03-16T07:35:09.123Z,72.70
2019-03-16T07:37:37.615Z,72.80
2019-03-16T07:40:11.350Z,72.90
2019-03-16T07:42:39.886Z,73.80
2019-03-16T07:45:10.723Z,72.80
2019-03-16T07:47:39.267Z,72.80
2019-03-16T07:50:10.817Z,72.20
2019-03-16T07:52:39.364Z,72.10
2019-03-16T07:55:08.756Z,72.70
2019-03-16T07:57:40.385Z,72.50
2019-03-16T08:00:12.328Z,72.10
2019-03-16T08:02:41.028Z,72.00
2019-03-16T08:05:18.133Z,71.20
2019-03-16T08:07:40.276Z,71.00
2019-03-16T08:10:12.069Z,71.90
2019-03-16T08:12:40.691Z,71.90
2019-03-16T08:15:10.329Z,72.10
2019-03-16T08:17:39.014Z,71.00
2019-03-16T08:20:08.953Z,70.50
2019-03-16T08:22:37.438Z,70.90
2019-03-16T08:25:07.352Z,70.20
2019-03-16T08:27:35.873Z,71.00
2019-03-16T08:30:06.406Z,71.50
2019-03-16T08:32:35.091Z,73.10
2019-03-16T08:35:03.913Z,72.10
2019-03-16T08:37:32.455Z,71.10
2019-03-16T08:40:00.921Z,71.10
2019-03-16T08:42:29.516Z,71.30
2019-03-16T08:44:58.207Z,69.50
2019-03-16T08:47:26.671Z,70.20
2019-03-16T08:49:55.459Z,69.40
2019-03-16T08:52:23.944Z,68.10
2019-03-16T08:54:52.468Z,66.70
2019-03-16T08:57:20.956Z,67.70
2019-03-16T08:59:49.607Z,67.50
2019-03-16T09:02:18.067Z,66.80
2019-03-16T09:04:49.559Z,66.90
2019-03-16T09:07:26.570Z,65.20
2019-03-16T09:09:55.120Z,64.10
2019-03-16T09:12:27.932Z,66.10
2019-03-16T09:14:58.165Z,65.90
2019-03-16T09:17:26.631Z,66.40
2019-03-16T09:19:59.389Z,66.20
2019-03-16T09:22:29.702Z,67.00
2019-03-16T09:24:58.314Z,67.70
2019-03-16T09:27:39.258Z,64.70
2019-03-16T09:30:13.669Z,61.50
2019-03-16T09:32:42.290Z,61.80
2019-03-16T09:35:14.951Z,62.30
2019-03-16T09:37:43.614Z,59.70
2019-03-16T09:40:13.100Z,62.60
2019-03-16T09:42:41.686Z,62.40
2019-03-16T09:45:18.940Z,62.20
2019-03-16T09:47:47.588Z,63.10
2019-03-16T09:50:18.499Z,63.90
2019-03-16T09:52:51.155Z,65.90
2019-03-16T09:55:19.731Z,64.00
2019-03-16T09:57:52.567Z,65.60
2019-03-16T10:00:21.135Z,65.90
2019-03-16T10:02:49.620Z,65.60
2019-03-16T10:05:20.140Z,64.40
2019-03-16T10:07:51.819Z,64.60
2019-03-16T10:10:20.360Z,64.30
2019-03-16T10:12:50.484Z,65.80
2019-03-16T10:15:18.951Z,65.00
2019-03-16T10:17:49.356Z,64.40
2019-03-16T10:20:20.687Z,65.20
2019-03-16T10:22:58.204Z,64.00
2019-03-16T10:25:34.704Z,62.60
2019-03-16T10:28:08.162Z,61.90
2019-03-16T10:30:36.737Z,60.60
2019-03-16T10:33:11.194Z,60.30
2019-03-16T10:35:41.055Z,63.50
2019-03-16T10:38:12.760Z,61.70
2019-03-16T10:40:42.876Z,61.20
2019-03-16T10:43:11.562Z,59.50
2019-03-16T10:45:59.510Z,60.80
2019-03-16T10:48:29.648Z,63.60
2019-03-16T10:50:58.656Z,63.40
2019-03-16T10:53:28.731Z,61.00
2019-03-16T10:56:00.291Z,61.70
2019-03-16T10:58:32.074Z,61.20
2019-03-16T11:01:00.654Z,61.10
2019-03-16T11:03:29.262Z,61.20
2019-03-16T11:05:57.791Z,61.30
2019-03-16T11:08:26.359Z,60.90
2019-03-16T11:10:56.262Z,58.90
2019-03-16T11:13:24.765Z,60.20
2019-03-16T11:15:54.507Z,58.70
2019-03-16T11:18:25.301Z,58.40
2019-03-16T11:20:55.736Z,58.80
2019-03-16T11:23:24.340Z,59.30
2019-03-16T11:25:52.855Z,59.40
2019-03-16T11:28:24.097Z,58.60
2019-03-16T11:30:52.608Z,57.90
2019-03-16T11:33:26.864Z,57.40
2019-03-16T11:35:55.328Z,57.80
2019-03-16T11:38:23.825Z,57.40
2019-03-16T11:40:52.400Z,58.20
2019-03-16T11:43:20.969Z,58.40
2019-03-16T11:45:49.540Z,57.70
2019-03-16T11:48:18.076Z,57.00
2019-03-16T11:50:51.026Z,54.90
2019-03-16T11:53:19.607Z,55.80
2019-03-16T11:55:48.139Z,55.70
2019-03-16T11:58:19.498Z,57.00
2019-03-16T12:00:48.072Z,58.20
2019-03-16T12:03:16.671Z,56.90
2019-03-16T12:05:45.271Z,56.90
2019-03-16T12:08:18.144Z,57.60
2019-03-16T12:10:46.618Z,57.80
2019-03-16T12:13:20.573Z,57.60
2019-03-16T12:15:49.850Z,57.20
2019-03-16T12:18:18.479Z,53.20
2019-03-16T12:20:47.120Z,53.10
2019-03-16T12:23:17.433Z,49.80
2019-03-16T12:25:46.016Z,50.60
2019-03-16T12:28:14.764Z,50.90
2019-03-16T12:30:48.272Z,52.40
2019-03-16T12:33:16.758Z,52.20
2019-03-16T12:35:45.323Z,51.20
2019-03-16T12:38:13.904Z,51.60
2019-03-16T12:40:42.808Z,51.60
2019-03-16T12:43:11.712Z,52.30
2019-03-16T12:45:40.509Z,52.50
2019-03-16T12:48:09.056Z,52.40
2019-03-16T12:50:37.697Z,52.40
2019-03-16T12:53:06.343Z,53.50
2019-03-16T12:55:34.930Z,53.40
2019-03-16T12:58:03.543Z,54.70
2019-03-16T13:00:32.131Z,54.30
2019-03-16T13:03:00.605Z,53.90
2019-03-16T13:05:29.213Z,52.90
2019-03-16T13:07:57.832Z,51.70
2019-03-16T13:10:26.395Z,52.20
2019-03-16T13:12:54.940Z,52.90
2019-03-16T13:15:23.539Z,52.80
2019-03-16T13:17:52.013Z,53.20
2019-03-16T13:20:20.470Z,53.40
2019-03-16T13:22:49.171Z,54.00
2019-03-16T13:25:17.776Z,55.30
2019-03-16T13:27:46.451Z,54.70
2019-03-16T13:30:18.779Z,54.10
2019-03-16T13:32:47.315Z,55.30
2019-03-16T13:35:15.891Z,54.70
2019-03-16T13:37:44.544Z,55.10
2019-03-16T13:40:14.655Z,55.00
2019-03-16T13:42:43.103Z,54.50
2019-03-16T13:45:12.140Z,54.60
2019-03-16T13:47:40.674Z,55.00
2019-03-16T13:50:14.027Z,56.10
2019-03-16T13:52:42.893Z,55.90
2019-03-16T13:55:11.596Z,55.50
2019-03-16T13:57:40.046Z,55.10
2019-03-16T14:00:12.514Z,55.50
2019-03-16T14:02:41.263Z,54.40
2019-03-16T14:05:09.967Z,56.00
2019-03-16T14:07:38.903Z,53.60
2019-03-16T14:10:29.739Z,53.80
2019-03-16T14:12:58.344Z,53.50
2019-03-16T14:15:29.032Z,53.20
2019-03-16T14:17:58.250Z,53.90
2019-03-16T14:20:27.088Z,54.40
2019-03-16T14:22:55.832Z,53.80
2019-03-16T14:25:24.363Z,55.20
2019-03-16T14:27:53.066Z,54.50
2019-03-16T14:30:39.135Z,54.80
2019-03-16T14:32:51.921Z,54.40
2019-03-16T14:35:20.596Z,54.50
2019-03-16T14:37:49.149Z,55.30
2019-03-16T14:40:17.875Z,54.90
2019-03-16T14:42:46.485Z,55.30
2019-03-16T14:45:16.241Z,56.40
2019-03-16T14:47:45.155Z,55.70
2019-03-16T14:50:18.302Z,55.90
2019-03-16T14:52:46.770Z,56.10
2019-03-16T14:55:15.771Z,56.00
2019-03-16T14:57:44.274Z,57.00
2019-03-16T15:00:17.371Z,56.70
2019-03-16T15:02:47.443Z,57.30
2019-03-16T15:05:16.063Z,57.20
2019-03-16T15:07:44.540Z,57.30
2019-03-16T15:10:14.575Z,57.90
2019-03-16T15:13:00.271Z,57.90
2019-03-16T15:15:35.027Z,57.20
2019-03-16T15:18:03.549Z,57.60
2019-03-16T15:20:32.085Z,58.70
2019-03-16T15:23:00.695Z,58.60
2019-03-16T15:25:29.272Z,58.10
2019-03-16T15:27:57.837Z,58.50
2019-03-16T15:30:26.381Z,58.20
2019-03-16T15:32:54.956Z,57.80
2019-03-16T15:35:23.623Z,59.20
2019-03-16T15:37:52.084Z,58.70
2019-03-16T15:40:20.583Z,58.50
2019-03-16T15:42:50.431Z,58.70
2019-03-16T15:45:30.556Z,58.90
2019-03-16T15:47:59.123Z,59.20
2019-03-16T15:50:28.172Z,59.70
2019-03-16T15:52:56.760Z,59.30
2019-03-16T15:55:25.419Z,59.00
2019-03-16T15:58:06.993Z,59.20
2019-03-16T16:00:24.347Z,58.80
2019-03-16T16:02:52.996Z,60.00
2019-03-16T16:05:21.537Z,59.10
2019-03-16T16:07:50.051Z,59.60
2019-03-16T16:10:19.602Z,59.90
2019-03-16T16:12:48.231Z,59.70
2019-03-16T16:15:16.946Z,59.70
2019-03-16T16:17:45.439Z,60.90
2019-03-16T16:20:16.263Z,60.10
2019-03-16T16:22:45.095Z,60.80
2019-03-16T16:25:14.320Z,61.60
2019-03-16T16:27:42.900Z,61.10
2019-03-16T16:30:16.324Z,60.70
2019-03-16T16:32:46.628Z,61.00
2019-03-16T16:35:16.007Z,61.30
2019-03-16T16:37:44.659Z,60.50
2019-03-16T16:40:16.256Z,60.50
2019-03-16T16:42:46.327Z,59.70
2019-03-16T16:45:16.193Z,59.70
2019-03-16T16:47:43.957Z,59.80
2019-03-16T16:50:14.753Z,59.60
2019-03-16T16:52:43.664Z,60.80
2019-03-16T16:55:12.376Z,61.90
2019-03-16T16:57:40.905Z,63.40
2019-03-16T17:00:12.435Z,63.80
2019-03-16T17:02:40.971Z,65.50
2019-03-16T17:05:09.588Z,66.70
2019-03-16T17:07:38.159Z,66.80
2019-03-16T17:10:12.009Z,67.30
2019-03-16T17:12:40.489Z,67.70
2019-03-16T17:15:12.061Z,69.10
2019-03-16T17:17:40.624Z,70.70
2019-03-16T17:20:13.544Z,71.40
2019-03-16T17:22:42.167Z,70.50
2019-03-16T17:25:12.903Z,71.80
2019-03-16T17:27:41.465Z,72.50
2019-03-16T17:30:21.441Z,74.20
2019-03-16T17:32:51.618Z,77.50
2019-03-16T17:35:20.121Z,79.50
2019-03-16T17:37:48.704Z,80.50
2019-03-16T17:40:17.426Z,80.60
2019-03-16T17:42:45.900Z,79.70
2019-03-16T17:45:19.115Z,80.70
2019-03-16T17:47:47.646Z,80.40
2019-03-16T17:50:17.039Z,80.50
2019-03-16T17:52:45.776Z,80.70
2019-03-16T17:55:18.751Z,81.90
2019-03-16T17:57:47.242Z,82.40
2019-03-16T18:00:19.592Z,82.50
2019-03-16T18:02:52.523Z,83.50
2019-03-16T18:05:18.872Z,83.30
2019-03-16T18:07:47.536Z,84.60
2019-03-16T18:10:16.197Z,84.70
2019-03-16T18:12:44.715Z,85.00
2019-03-16T18:15:18.368Z,86.00
2019-03-16T18:17:46.898Z,87.30
2019-03-16T18:20:17.897Z,87.90
2019-03-16T18:22:47.642Z,89.90
2019-03-16T18:25:16.820Z,90.70
2019-03-16T18:27:45.411Z,91.30
2019-03-16T18:30:24.258Z,91.90
2019-03-16T18:32:52.783Z,92.50
2019-03-16T18:35:21.324Z,93.20
2019-03-16T18:37:49.899Z,93.80
2019-03-16T18:40:18.450Z,94.00
2019-03-16T18:43:05.522Z,94.90
2019-03-16T18:45:34.388Z,95.40
2019-03-16T18:48:02.995Z,95.60
2019-03-16T18:50:31.572Z,95.80
2019-03-16T18:53:00.192Z,95.90
2019-03-16T18:55:29.870Z,96.20
2019-03-16T18:57:57.681Z,96.20
2019-03-16T19:00:26.364Z,96.40
2019-03-16T19:02:54.852Z,96.50
2019-03-16T19:05:23.355Z,96.70
2019-03-16T19:07:51.820Z,96.50
2019-03-16T19:10:20.452Z,97.20
2019-03-16T19:12:49.181Z,97.10
2019-03-16T19:15:18.771Z,97.30
2019-03-16T19:17:57.936Z,97.30
2019-03-16T19:20:18.072Z,97.20
2019-03-16T19:22:46.757Z,97.10
2019-03-16T19:25:16.800Z,97.30
2019-03-16T19:27:45.378Z,97.60
2019-03-16T19:30:15.270Z,97.50
2019-03-16T19:32:43.965Z,97.60
2019-03-16T19:35:12.966Z,98.20
2019-03-16T19:37:41.675Z,97.90
2019-03-16T19:40:15.535Z,97.80
2019-03-16T19:42:46.463Z,97.90
2019-03-16T19:45:14.342Z,98.20
2019-03-16T19:47:42.997Z,98.00
2019-03-16T19:50:16.371Z,98.00
2019-03-16T19:53:05.754Z,98.20
2019-03-16T19:55:34.980Z,98.00
2019-03-16T19:58:03.591Z,98.20
2019-03-16T20:00:32.200Z,98.40
2019-03-16T20:03:00.709Z,98.40
2019-03-16T20:05:29.246Z,98.60
2019-03-16T20:07:57.769Z,98.80
2019-03-16T20:10:26.380Z,98.60
2019-03-16T20:12:54.872Z,98.60
2019-03-16T20:15:24.386Z,98.60
2019-03-16T20:17:53.065Z,98.60
2019-03-16T20:20:21.601Z,98.50
2019-03-16T20:22:50.140Z,98.50
2019-03-16T20:25:18.799Z,98.40
2019-03-16T20:27:47.263Z,98.40
2019-03-16T20:30:25.643Z,98.60
2019-03-16T20:32:50.353Z,98.70
2019-03-16T20:35:17.804Z,98.80
2019-03-16T20:37:46.270Z,98.80
2019-03-16T20:40:16.107Z,99.10
2019-03-16T20:42:44.587Z,99.20
2019-03-16T20:45:13.802Z,99.20
2019-03-16T20:47:42.437Z,99.30
2019-03-16T20:50:18.618Z,99.30
2019-03-16T20:52:47.212Z,99.20
2019-03-16T20:55:15.796Z,99.20
2019-03-16T20:57:44.702Z,99.10
2019-03-16T21:00:17.215Z,98.90
2019-03-16T21:02:45.676Z,98.80
2019-03-16T21:05:14.351Z,98.80
2019-03-16T21:07:42.920Z,98.50
2019-03-16T21:10:12.536Z,98.70
2019-03-16T21:12:41.622Z,98.30
2019-03-16T21:15:20.583Z,98.20
2019-03-16T21:17:49.132Z,98.20
2019-03-16T21:20:18.896Z,98.50
2019-03-16T21:22:47.215Z,98.20
2019-03-16T21:25:16.655Z,98.20
2019-03-16T21:27:47.733Z,98.20
2019-03-16T21:30:20.787Z,98.20
2019-03-16T21:32:49.383Z,98.10
2019-03-16T21:35:18.088Z,98.40
2019-03-16T21:37:46.806Z,98.30
2019-03-16T21:40:15.836Z,98.30
2019-03-16T21:42:44.435Z,98.40
2019-03-16T21:45:13.857Z,98.60
2019-03-16T21:47:42.619Z,98.10
2019-03-16T21:50:15.325Z,98.30
2019-03-16T21:52:44.782Z,98.20
2019-03-16T21:55:14.505Z,98.10
2019-03-16T21:57:43.103Z,98.20
2019-03-16T22:00:14.017Z,98.20
2019-03-16T22:02:42.652Z,98.10
2019-03-16T22:05:11.555Z,98.10
2019-03-16T22:07:40.346Z,97.90
2019-03-16T22:10:13.793Z,98.00
2019-03-16T22:12:42.403Z,97.90
2019-03-16T22:15:14.035Z,97.70
2019-03-16T22:17:42.508Z,97.70
2019-03-16T22:20:19.383Z,97.70
2019-03-16T22:22:47.987Z,97.70
2019-03-16T22:25:16.504Z,97.50
2019-03-16T22:27:45.089Z,97.70
2019-03-16T22:30:17.933Z,97.60
2019-03-16T22:32:46.537Z,97.50
2019-03-16T22:35:15.223Z,97.40
2019-03-16T22:37:43.809Z,97.40
2019-03-16T22:40:13.509Z,97.30
2019-03-16T22:42:41.327Z,97.20
2019-03-16T22:45:11.435Z,97.30
2019-03-16T22:47:39.891Z,97.20
2019-03-16T22:50:11.499Z,97.20
2019-03-16T22:52:40.041Z,97.30
2019-03-16T22:55:08.644Z,97.40
2019-03-16T22:57:37.139Z,97.30
2019-03-16T23:00:21.375Z,97.30
2019-03-16T23:02:49.989Z,97.30
2019-03-16T23:05:18.587Z,97.40
2019-03-16T23:07:47.095Z,97.40
2019-03-16T23:10:15.652Z,97.40
2019-03-16T23:12:44.926Z,97.20
2019-03-16T23:15:13.387Z,97.20
2019-03-16T23:17:41.887Z,97.10
2019-03-16T23:20:10.769Z,97.10
2019-03-16T23:22:39.238Z,97.40
2019-03-16T23:25:09.146Z,97.20
2019-03-16T23:27:37.749Z,97.20
2019-03-16T23:30:11.395Z,97.30
2019-03-16T23:32:39.959Z,97.20
2019-03-16T23:35:09.136Z,97.10
2019-03-16T23:37:37.599Z,97.10
2019-03-16T23:40:12.995Z,97.10
2019-03-16T23:42:41.451Z,97.10
2019-03-16T23:45:12.305Z,97.10
2019-03-16T23:47:40.796Z,97.10
2019-03-16T23:50:11.565Z,97.10
2019-03-16T23:52:40.109Z,97.30
2019-03-16T23:55:09.712Z,97.10
2019-03-16T23:57:38.177Z,96.90
